createdAt,value
2022-09-11T00:01:22.961Z,7.53
2022-09-11T00:03:50.156Z,7.28
2022-09-11T00:06:28.896Z,6.90
2022-09-11T00:09:02.643Z,7.65
2022-09-11T00:11:31.829Z,7.03
2022-09-11T00:13:59.312Z,7.35
2022-09-11T00:16:29.071Z,7.05
2022-09-11T00:18:59.153Z,8.70
2022-09-11T00:21:26.936Z,7.63
2022-09-11T00:23:53.706Z,8.88
2022-09-11T00:26:22.537Z,7.80
2022-09-11T00:28:50.680Z,8.70
2022-09-11T00:31:19.858Z,7.47
2022-09-11T00:33:47.030Z,8.13
2022-09-11T00:36:16.530Z,8.25
2022-09-11T00:38:43.841Z,9.77
2022-09-11T00:41:14.101Z,8.10
2022-09-11T00:43:55.502Z,9.77
2022-09-11T00:46:24.593Z,9.32
2022-09-11T00:48:51.757Z,9.60
2022-09-11T00:51:22.362Z,9.15
2022-09-11T00:53:51.332Z,9.57
2022-09-11T00:56:18.876Z,9.00
2022-09-11T00:58:49.086Z,9.55
2022-09-11T01:01:17.204Z,9.40
2022-09-11T01:03:44.299Z,10.00
2022-09-11T01:06:11.629Z,9.35
2022-09-11T01:08:38.630Z,10.50
2022-09-11T01:11:20.520Z,10.55
2022-09-11T01:13:54.672Z,10.80
2022-09-11T01:16:30.353Z,12.85
2022-09-11T01:19:05.131Z,12.07
2022-09-11T01:21:59.309Z,11.80
2022-09-11T01:24:44.528Z,12.15
2022-09-11T01:27:37.456Z,13.00
2022-09-11T01:30:10.883Z,11.80
2022-09-11T01:32:45.555Z,10.82
2022-09-11T01:35:18.482Z,12.32
2022-09-11T01:37:55.219Z,12.80
2022-09-11T01:40:26.285Z,11.73
2022-09-11T01:43:03.461Z,13.70
2022-09-11T01:45:31.959Z,12.43
2022-09-11T01:48:00.173Z,12.95
2022-09-11T01:50:31.131Z,13.00
2022-09-11T01:53:02.180Z,11.25
2022-09-11T01:55:34.717Z,12.02
2022-09-11T01:58:08.133Z,12.45
2022-09-11T02:00:41.254Z,12.25
2022-09-11T02:03:14.287Z,12.68
2022-09-11T02:05:47.231Z,13.00
2022-09-11T02:08:27.088Z,12.57
2022-09-11T02:11:03.460Z,12.73
2022-09-11T02:13:36.903Z,12.20
2022-09-11T02:16:11.758Z,12.98
2022-09-11T02:18:43.368Z,12.63
2022-09-11T02:21:10.591Z,12.80
2022-09-11T02:23:39.985Z,14.48
2022-09-11T02:26:09.734Z,13.43
2022-09-11T02:28:38.107Z,12.90
2022-09-11T02:31:08.067Z,12.80
2022-09-11T02:33:37.087Z,12.80
2022-09-11T02:38:58.424Z,12.15
2022-09-11T02:41:34.015Z,13.02
2022-09-11T02:46:54.397Z,12.77
2022-09-11T02:49:30.046Z,12.25
2022-09-11T02:52:05.375Z,13.98
2022-09-11T02:54:40.884Z,12.95
2022-09-11T02:57:15.100Z,13.40
2022-09-11T02:59:51.384Z,12.35
2022-09-11T03:02:18.431Z,13.30
2022-09-11T03:04:48.953Z,13.38
2022-09-11T03:07:16.815Z,12.65
2022-09-11T03:09:44.255Z,12.48
2022-09-11T03:12:17.692Z,12.25
2022-09-11T03:14:49.696Z,12.00
2022-09-11T03:17:17.133Z,12.93
2022-09-11T03:19:43.897Z,12.13
2022-09-11T03:22:10.753Z,12.73
2022-09-11T03:24:37.537Z,12.35
2022-09-11T03:27:05.706Z,12.50
2022-09-11T03:29:35.141Z,12.25
2022-09-11T03:32:03.835Z,12.75
2022-09-11T03:34:31.792Z,12.43
2022-09-11T03:36:59.071Z,11.93
2022-09-11T03:39:26.091Z,12.38
2022-09-11T03:41:54.304Z,12.73
2022-09-11T03:44:23.208Z,11.75
2022-09-11T03:46:49.973Z,13.35
2022-09-11T03:49:18.174Z,12.93
2022-09-11T03:51:45.164Z,12.65
2022-09-11T03:54:13.216Z,13.10
2022-09-11T03:56:40.098Z,12.77
2022-09-11T03:59:07.045Z,13.50
2022-09-11T04:01:35.927Z,12.25
2022-09-11T04:04:04.801Z,13.20
2022-09-11T04:06:38.106Z,13.30
2022-09-11T04:09:05.949Z,14.32
2022-09-11T04:11:37.180Z,16.48
2022-09-11T04:14:06.513Z,16.25
2022-09-11T04:16:36.543Z,14.80
2022-09-11T04:19:03.644Z,15.00
2022-09-11T04:21:32.322Z,15.15
2022-09-11T04:24:01.125Z,13.85
2022-09-11T04:26:32.868Z,13.60
2022-09-11T04:29:07.292Z,13.20
2022-09-11T04:31:38.551Z,13.70
2022-09-11T04:34:07.429Z,13.90
2022-09-11T04:39:05.479Z,12.32
2022-09-11T04:41:32.522Z,13.15
2022-09-11T04:44:05.309Z,13.05
2022-09-11T04:46:37.059Z,13.55
2022-09-11T04:49:08.336Z,13.25
2022-09-11T04:51:37.035Z,12.60
2022-09-11T04:54:10.563Z,11.73
2022-09-11T04:56:38.287Z,12.77
2022-09-11T04:59:09.784Z,11.88
2022-09-11T05:01:38.065Z,11.90
2022-09-11T05:04:06.229Z,13.43
2022-09-11T05:06:33.030Z,12.75
2022-09-11T05:09:06.021Z,12.43
2022-09-11T05:11:36.877Z,10.88
2022-09-11T05:14:04.041Z,12.07
2022-09-11T05:16:37.162Z,11.93
2022-09-11T05:19:05.295Z,11.52
2022-09-11T05:21:34.540Z,12.05
2022-09-11T05:24:02.613Z,11.98
2022-09-11T05:26:33.393Z,11.18
2022-09-11T05:29:07.258Z,11.48
2022-09-11T05:31:37.514Z,11.48
2022-09-11T05:34:06.209Z,11.32
2022-09-11T05:36:33.611Z,12.63
2022-09-11T05:39:01.920Z,11.18
2022-09-11T05:41:28.768Z,10.45
2022-09-11T05:43:55.700Z,10.80
2022-09-11T05:46:25.642Z,9.50
2022-09-11T05:48:56.289Z,10.57
2022-09-11T05:51:23.273Z,10.48
2022-09-11T05:53:53.088Z,11.43
2022-09-11T05:56:22.533Z,10.63
2022-09-11T05:58:54.602Z,10.63
2022-09-11T06:01:29.192Z,10.70
2022-09-11T06:04:09.935Z,10.40
2022-09-11T06:06:38.710Z,11.05
2022-09-11T06:09:05.856Z,11.82
2022-09-11T06:11:33.025Z,11.23
2022-09-11T06:14:01.443Z,11.95
2022-09-11T06:16:31.760Z,12.40
2022-09-11T06:19:06.241Z,11.43
2022-09-11T06:21:33.088Z,12.35
2022-09-11T06:24:13.260Z,12.30
2022-09-11T06:26:40.422Z,12.98
2022-09-11T06:29:07.961Z,11.77
2022-09-11T06:31:38.911Z,12.73
2022-09-11T06:34:05.954Z,12.57
2022-09-11T06:36:32.933Z,13.32
2022-09-11T06:39:05.058Z,12.35
2022-09-11T06:44:10.002Z,11.70
2022-09-11T06:49:09.206Z,12.82
2022-09-11T06:51:55.893Z,13.25
2022-09-11T06:54:22.873Z,14.48
2022-09-11T06:56:49.657Z,15.02
2022-09-11T06:59:16.772Z,14.80
2022-09-11T07:01:45.088Z,13.50
2022-09-11T07:04:13.407Z,14.50
2022-09-11T07:06:41.725Z,12.80
2022-09-11T07:09:09.965Z,13.98
2022-09-11T07:11:44.979Z,13.77
2022-09-11T07:14:12.398Z,12.93
2022-09-11T07:16:42.223Z,13.15
2022-09-11T07:19:14.132Z,12.18
2022-09-11T07:21:41.862Z,11.55
2022-09-11T07:24:09.950Z,10.60
2022-09-11T07:26:41.681Z,10.38
2022-09-11T07:29:14.217Z,8.93
2022-09-11T07:31:42.961Z,8.27
2022-09-11T07:34:13.347Z,8.20
2022-09-11T07:36:40.277Z,6.68
2022-09-11T07:39:09.450Z,5.60
2022-09-11T07:41:44.765Z,4.75
2022-09-11T07:44:18.505Z,4.68
2022-09-11T07:46:45.352Z,3.47
2022-09-11T07:49:14.499Z,3.72
2022-09-11T07:51:43.524Z,3.60
2022-09-11T07:54:13.185Z,3.60
2022-09-11T07:56:41.799Z,3.40
2022-09-11T07:59:10.929Z,3.47
2022-09-11T08:01:42.726Z,3.17
2022-09-11T08:04:12.613Z,3.17
2022-09-11T08:06:42.637Z,3.00
2022-09-11T08:09:21.133Z,3.58
2022-09-11T08:11:58.624Z,3.38
2022-09-11T08:14:27.529Z,3.83
2022-09-11T08:16:58.321Z,4.22
2022-09-11T08:19:27.810Z,3.60
2022-09-11T08:21:58.666Z,3.60
2022-09-11T08:24:27.423Z,3.20
2022-09-11T08:26:58.681Z,3.50
2022-09-11T08:29:26.879Z,2.70
2022-09-11T08:31:57.124Z,2.60
2022-09-11T08:34:26.313Z,2.28
2022-09-11T08:36:53.274Z,2.67
2022-09-11T08:39:21.958Z,1.95
2022-09-11T08:41:57.100Z,1.90
2022-09-11T08:44:29.066Z,2.30
2022-09-11T08:49:39.637Z,2.35
2022-09-11T08:52:10.249Z,2.25
2022-09-11T08:54:41.774Z,2.00
2022-09-11T08:57:19.298Z,2.28
2022-09-11T09:00:07.489Z,2.03
2022-09-11T09:03:13.018Z,2.20
2022-09-11T09:05:49.624Z,2.15
2022-09-11T09:08:35.323Z,2.10
2022-09-11T09:11:14.352Z,2.47
2022-09-11T09:13:59.700Z,2.35
2022-09-11T09:16:37.146Z,2.20
2022-09-11T09:19:08.994Z,2.15
2022-09-11T09:21:43.589Z,2.70
2022-09-11T09:24:19.493Z,2.10
2022-09-11T09:26:54.918Z,1.92
2022-09-11T09:29:25.764Z,2.80
2022-09-11T09:31:59.746Z,2.50
2022-09-11T09:34:31.398Z,2.47
2022-09-11T09:37:04.449Z,2.45
2022-09-11T09:39:32.318Z,2.00
2022-09-11T09:42:11.849Z,1.85
2022-09-11T09:44:51.371Z,1.90
2022-09-11T09:47:18.658Z,1.50
2022-09-11T09:49:46.015Z,2.20
2022-09-11T09:52:18.087Z,2.15
2022-09-11T09:54:53.163Z,1.60
2022-09-11T09:57:24.317Z,1.58
2022-09-11T09:59:55.938Z,1.90
2022-09-11T10:02:40.619Z,2.13
2022-09-11T10:05:17.509Z,1.42
2022-09-11T10:07:49.772Z,2.03
2022-09-11T10:10:26.757Z,1.60
2022-09-11T10:13:17.712Z,2.00
2022-09-11T10:15:44.145Z,2.42
2022-09-11T10:18:45.322Z,1.95
2022-09-11T10:21:35.781Z,1.92
2022-09-11T10:24:19.681Z,1.90
2022-09-11T10:26:51.512Z,2.00
2022-09-11T10:29:24.372Z,1.85
2022-09-11T10:31:53.294Z,1.73
2022-09-11T10:34:22.430Z,2.00
2022-09-11T10:39:21.283Z,1.50
2022-09-11T10:41:49.850Z,1.98
2022-09-11T10:44:21.873Z,1.90
2022-09-11T10:47:03.289Z,1.70
2022-09-11T10:49:30.332Z,1.63
2022-09-11T10:52:03.584Z,1.88
2022-09-11T10:54:47.224Z,1.73
2022-09-11T10:57:20.063Z,2.00
2022-09-11T10:59:57.912Z,1.45
2022-09-11T11:02:29.979Z,1.73
2022-09-11T11:04:58.199Z,1.75
2022-09-11T11:07:54.992Z,1.50
2022-09-11T11:10:34.872Z,1.70
2022-09-11T11:13:17.585Z,1.80
2022-09-11T11:16:06.957Z,1.65
2022-09-11T11:18:53.969Z,1.55
2022-09-11T11:21:32.979Z,1.63
2022-09-11T11:24:22.154Z,2.50
2022-09-11T11:26:56.035Z,1.63
2022-09-11T11:29:43.176Z,1.45
2022-09-11T11:32:41.686Z,1.80
2022-09-11T11:35:23.936Z,1.35
2022-09-11T11:37:55.875Z,1.10
2022-09-11T11:40:28.254Z,2.05
2022-09-11T11:43:01.236Z,2.05
2022-09-11T11:45:32.420Z,1.80
2022-09-11T11:48:08.149Z,3.08
2022-09-11T11:50:40.483Z,3.88
2022-09-11T11:53:18.140Z,3.47
2022-09-11T11:55:54.561Z,3.95
2022-09-11T11:58:30.328Z,3.83
2022-09-11T12:01:02.244Z,4.20
2022-09-11T12:03:38.881Z,4.22
2022-09-11T12:06:07.823Z,4.22
2022-09-11T12:08:43.439Z,4.68
2022-09-11T12:11:13.038Z,4.10
2022-09-11T12:13:43.816Z,4.60
2022-09-11T12:16:15.664Z,4.20
2022-09-11T12:19:04.229Z,5.18
2022-09-11T12:22:05.696Z,5.53
2022-09-11T12:24:55.097Z,5.10
2022-09-11T12:27:52.297Z,4.07
2022-09-11T12:30:23.505Z,4.50
2022-09-11T12:32:51.397Z,4.10
2022-09-11T12:35:25.174Z,4.40
2022-09-11T12:37:59.175Z,5.00
2022-09-11T12:40:34.318Z,4.60
2022-09-11T12:45:47.795Z,3.83
2022-09-11T12:48:17.227Z,4.32
2022-09-11T12:50:55.200Z,3.90
2022-09-11T12:53:26.219Z,3.70
2022-09-11T12:55:58.257Z,3.92
2022-09-11T12:58:34.248Z,3.30
2022-09-11T13:01:06.413Z,3.03
2022-09-11T13:03:34.459Z,3.00
2022-09-11T13:06:06.921Z,3.45
2022-09-11T13:08:38.873Z,3.42
2022-09-11T13:11:38.879Z,3.20
2022-09-11T13:14:49.914Z,2.45
2022-09-11T13:17:26.313Z,2.13
2022-09-11T13:19:57.570Z,2.30
2022-09-11T13:22:27.846Z,2.85
2022-09-11T13:25:11.291Z,2.72
2022-09-11T13:27:41.510Z,2.53
2022-09-11T13:30:11.521Z,2.35
2022-09-11T13:32:38.803Z,2.35
2022-09-11T13:35:11.854Z,2.47
2022-09-11T13:37:45.556Z,2.10
2022-09-11T13:40:19.689Z,1.98
2022-09-11T13:42:47.004Z,2.75
2022-09-11T13:45:17.971Z,2.30
2022-09-11T13:47:47.390Z,2.30
2022-09-11T13:50:16.433Z,2.20
2022-09-11T13:52:46.107Z,1.90
2022-09-11T13:55:19.294Z,2.28
2022-09-11T13:57:52.530Z,2.40
2022-09-11T14:00:40.971Z,2.38
2022-09-11T14:03:17.100Z,2.60
2022-09-11T14:05:50.297Z,2.35
2022-09-11T14:08:25.018Z,2.80
2022-09-11T14:10:55.431Z,2.13
2022-09-11T14:13:27.823Z,2.25
2022-09-11T14:15:58.119Z,2.10
2022-09-11T14:18:30.565Z,1.90
2022-09-11T14:21:00.469Z,2.47
2022-09-11T14:23:30.090Z,1.90
2022-09-11T14:26:09.877Z,1.83
2022-09-11T14:28:43.228Z,2.15
2022-09-11T14:31:11.915Z,1.83
2022-09-11T14:33:38.775Z,1.77
2022-09-11T14:36:17.778Z,1.60
2022-09-11T14:38:47.735Z,1.88
2022-09-11T14:41:14.514Z,1.90
2022-09-11T14:43:41.904Z,1.83
2022-09-11T14:46:08.879Z,2.00
2022-09-11T14:48:36.083Z,2.17
2022-09-11T14:51:11.400Z,1.77
2022-09-11T14:53:43.746Z,1.70
2022-09-11T14:56:12.204Z,1.85
2022-09-11T14:58:39.108Z,2.10
2022-09-11T15:01:06.119Z,1.90
2022-09-11T15:03:32.972Z,1.90
2022-09-11T15:06:00.075Z,1.90
2022-09-11T15:08:26.884Z,2.03
2022-09-11T15:10:53.929Z,1.90
2022-09-11T15:13:22.982Z,1.83
2022-09-11T15:15:52.067Z,1.80
2022-09-11T15:18:19.186Z,1.83
2022-09-11T15:20:45.984Z,1.90
2022-09-11T15:23:12.938Z,1.90
2022-09-11T15:25:41.024Z,2.00
2022-09-11T15:28:10.227Z,1.85
2022-09-11T15:30:39.255Z,1.85
2022-09-11T15:33:06.456Z,1.83
2022-09-11T15:35:33.359Z,2.00
2022-09-11T15:38:00.575Z,2.10
2022-09-11T15:40:27.400Z,2.22
2022-09-11T15:42:56.648Z,2.08
2022-09-11T15:45:23.781Z,1.88
2022-09-11T15:47:51.996Z,2.05
2022-09-11T15:50:24.604Z,2.15
2022-09-11T15:52:51.465Z,2.25
2022-09-11T15:55:18.347Z,1.80
2022-09-11T15:57:45.093Z,2.08
2022-09-11T16:00:15.292Z,1.88
2022-09-11T16:02:42.674Z,2.20
2022-09-11T16:05:10.904Z,2.10
2022-09-11T16:07:37.729Z,2.22
2022-09-11T16:10:05.245Z,2.05
2022-09-11T16:12:33.746Z,1.83
2022-09-11T16:15:00.552Z,2.83
2022-09-11T16:17:31.151Z,1.83
2022-09-11T16:19:58.134Z,2.33
2022-09-11T16:22:30.946Z,2.30
2022-09-11T16:24:59.389Z,2.03
2022-09-11T16:27:26.428Z,2.17
2022-09-11T16:32:40.601Z,2.20
2022-09-11T16:35:08.629Z,2.20
2022-09-11T16:37:38.512Z,2.08
2022-09-11T16:40:06.669Z,1.65
2022-09-11T16:42:33.742Z,2.03
2022-09-11T16:45:00.697Z,2.80
2022-09-11T16:47:30.426Z,2.78
2022-09-11T16:50:12.571Z,2.13
2022-09-11T16:52:40.806Z,2.42
2022-09-11T16:55:09.831Z,2.22
2022-09-11T16:57:37.472Z,2.25
2022-09-11T17:00:05.774Z,2.28
2022-09-11T17:02:32.698Z,2.47
2022-09-11T17:04:59.677Z,2.28
2022-09-11T17:07:26.454Z,2.55
2022-09-11T17:09:54.855Z,2.97
2022-09-11T17:12:22.291Z,2.50
2022-09-11T17:14:50.096Z,2.15
2022-09-11T17:17:16.903Z,2.85
2022-09-11T17:19:43.629Z,2.50
2022-09-11T17:22:10.584Z,2.58
2022-09-11T17:24:37.492Z,2.80
2022-09-11T17:27:05.973Z,2.75
2022-09-11T17:29:32.736Z,2.83
2022-09-11T17:32:23.771Z,2.95
2022-09-11T17:34:47.910Z,3.28
2022-09-11T17:37:15.057Z,2.90
2022-09-11T17:39:42.750Z,2.67
2022-09-11T17:42:13.173Z,2.83
2022-09-11T17:44:41.483Z,2.78
2022-09-11T17:47:08.592Z,2.95
2022-09-11T17:49:35.483Z,2.65
2022-09-11T17:52:02.785Z,3.00
2022-09-11T17:54:29.738Z,2.97
2022-09-11T17:56:58.269Z,3.17
2022-09-11T17:59:26.458Z,3.13
2022-09-11T18:01:53.426Z,2.80
2022-09-11T18:04:20.725Z,2.92
2022-09-11T18:06:47.553Z,3.10
2022-09-11T18:09:19.907Z,3.53
2022-09-11T18:11:49.909Z,2.88
2022-09-11T18:14:18.384Z,3.53
2022-09-11T18:16:48.121Z,3.47
2022-09-11T18:19:16.532Z,3.47
2022-09-11T18:21:48.039Z,3.35
2022-09-11T18:24:20.016Z,4.20
2022-09-11T18:26:49.778Z,4.47
2022-09-11T18:29:20.122Z,4.00
2022-09-11T18:31:50.349Z,3.95
2022-09-11T18:34:19.263Z,4.50
2022-09-11T18:36:46.171Z,4.53
2022-09-11T18:39:14.127Z,4.32
2022-09-11T18:41:41.465Z,4.60
2022-09-11T18:44:10.937Z,4.72
2022-09-11T18:46:37.723Z,4.32
2022-09-11T18:49:06.278Z,4.78
2022-09-11T18:51:33.612Z,5.20
2022-09-11T18:54:01.006Z,5.05
2022-09-11T18:56:29.402Z,5.13
2022-09-11T18:58:56.464Z,4.95
2022-09-11T19:01:25.819Z,5.28
2022-09-11T19:03:53.539Z,4.95
2022-09-11T19:06:25.760Z,5.40
2022-09-11T19:08:54.847Z,7.07
2022-09-11T19:11:23.573Z,6.57
2022-09-11T19:13:51.577Z,5.38
2022-09-11T19:16:19.322Z,7.13
2022-09-11T19:18:46.169Z,8.57
2022-09-11T19:21:14.631Z,9.55
2022-09-11T19:23:45.120Z,9.48
2022-09-11T19:26:14.169Z,8.75
2022-09-11T19:28:42.594Z,8.55
2022-09-11T19:31:12.258Z,10.45
2022-09-11T19:33:39.637Z,9.13
2022-09-11T19:36:10.810Z,9.02
2022-09-11T19:38:42.409Z,9.15
2022-09-11T19:41:15.743Z,9.80
2022-09-11T19:43:43.890Z,10.10
2022-09-11T19:46:12.987Z,10.18
2022-09-11T19:48:40.460Z,10.95
2022-09-11T19:51:10.476Z,9.10
2022-09-11T19:53:39.153Z,9.07
2022-09-11T19:56:06.533Z,8.82
2022-09-11T19:58:35.062Z,8.27
2022-09-11T20:01:04.573Z,8.45
2022-09-11T20:03:31.977Z,7.70
2022-09-11T20:06:00.360Z,7.93
2022-09-11T20:08:27.348Z,7.53
2022-09-11T20:10:54.479Z,7.40
2022-09-11T20:13:21.549Z,6.95
2022-09-11T20:15:49.834Z,7.72
2022-09-11T20:18:16.543Z,8.70
2022-09-11T20:20:45.573Z,9.40
2022-09-11T20:23:12.657Z,10.43
2022-09-11T20:25:39.425Z,9.60
2022-09-11T20:28:06.302Z,10.65
2022-09-11T20:30:33.658Z,10.15
2022-09-11T20:33:01.860Z,11.65
2022-09-11T20:35:28.680Z,11.95
2022-09-11T20:37:55.658Z,11.02
2022-09-11T20:40:22.424Z,12.27
2022-09-11T20:42:49.300Z,12.82
2022-09-11T20:45:16.313Z,13.05
2022-09-11T20:47:43.181Z,13.45
2022-09-11T20:50:13.388Z,15.80
2022-09-11T20:52:41.183Z,13.27
2022-09-11T20:55:08.373Z,12.43
2022-09-11T20:57:35.156Z,11.93
2022-09-11T21:00:02.266Z,11.65
2022-09-11T21:02:29.236Z,11.13
2022-09-11T21:04:56.095Z,11.60
2022-09-11T21:07:24.267Z,14.00
2022-09-11T21:09:51.003Z,15.02
2022-09-11T21:12:18.038Z,14.68
2022-09-11T21:14:45.801Z,14.85
2022-09-11T21:17:12.657Z,14.00
2022-09-11T21:19:39.436Z,13.13
2022-09-11T21:22:06.249Z,13.05
2022-09-11T21:24:34.608Z,13.60
2022-09-11T21:27:01.462Z,13.25
2022-09-11T21:29:28.160Z,13.90
2022-09-11T21:31:55.041Z,13.02
2022-09-11T21:34:21.871Z,13.32
2022-09-11T21:36:48.689Z,13.00
2022-09-11T21:39:15.606Z,14.15
2022-09-11T21:41:43.660Z,13.75
2022-09-11T21:44:10.445Z,12.75
2022-09-11T21:46:37.217Z,12.45
2022-09-11T21:49:04.088Z,12.00
2022-09-11T21:51:30.921Z,13.38
2022-09-11T21:53:58.997Z,13.52
2022-09-11T21:56:29.582Z,12.48
2022-09-11T21:58:59.025Z,12.30
2022-09-11T22:01:27.196Z,14.55
2022-09-11T22:03:54.752Z,13.57
2022-09-11T22:06:24.546Z,15.30
2022-09-11T22:08:52.097Z,14.60
2022-09-11T22:11:19.862Z,13.80
2022-09-11T22:13:47.874Z,13.10
2022-09-11T22:16:18.607Z,14.07
2022-09-11T22:18:48.301Z,13.93
2022-09-11T22:21:15.827Z,13.85
2022-09-11T22:23:42.681Z,13.63
2022-09-11T22:26:12.463Z,13.13
2022-09-11T22:28:40.311Z,12.38
2022-09-11T22:31:08.153Z,13.32
2022-09-11T22:33:38.776Z,13.57
2022-09-11T22:36:11.039Z,13.00
2022-09-11T22:38:38.044Z,14.15
2022-09-11T22:41:05.311Z,13.40
2022-09-11T22:43:32.629Z,13.02
2022-09-11T22:45:59.701Z,14.70
2022-09-11T22:48:27.004Z,14.73
2022-09-11T22:50:57.589Z,13.73
2022-09-11T22:53:24.950Z,13.82
2022-09-11T22:55:53.257Z,14.70
2022-09-11T22:58:21.140Z,13.82
2022-09-11T23:00:49.574Z,12.95
2022-09-11T23:03:16.856Z,13.00
2022-09-11T23:06:02.563Z,12.70
2022-09-11T23:08:37.014Z,12.18
2022-09-11T23:11:06.148Z,11.90
2022-09-11T23:13:34.004Z,11.73
2022-09-11T23:16:01.140Z,11.77
2022-09-11T23:18:28.225Z,12.82
2022-09-11T23:20:58.525Z,11.98
2022-09-11T23:23:25.718Z,12.30
2022-09-11T23:25:54.022Z,13.55
2022-09-11T23:28:20.821Z,13.32
2022-09-11T23:30:47.619Z,14.25
2022-09-11T23:33:14.473Z,15.13
2022-09-11T23:35:41.169Z,13.27
2022-09-11T23:38:08.116Z,14.20
2022-09-11T23:40:34.864Z,13.30
2022-09-11T23:43:03.147Z,13.48
2022-09-11T23:45:30.139Z,12.95
2022-09-11T23:47:56.961Z,13.15
2022-09-11T23:50:26.188Z,13.77
2022-09-11T23:52:53.040Z,13.43
2022-09-11T23:55:19.874Z,12.10
2022-09-11T23:57:47.905Z,13.07
